Aérodrome :
LOGIN :

S'inscrire | Disclaimer

   EN    FR    IT 

 










Légende :    VFR   VFR Marginal   IFR   IFR Intensif   IFR Très Intensif
Visi : 
Plafond : 
>= 8 km
>= 3000ft
5 à 8 km
1000 à 3000 ft
1500m à 5 km
500 à 1000 ft
800 à 1500m
200 à 500 ft
< 800m
< 200 ft
Symboles :   Orages  Brouillard  Fortes neiges  Fortes précipitations  Vent > 20 kt
SIGMETs :   Divers  Orages  Givrage  Turbulence  Onde Orograph.  Cendres Volcan.







- Altitude de l'aérodrome : 844 ft
- Code IATA : OSR


LKMT - Ostrava-Mosnov

DERNIER METAR :
  • 141000Z 02003KT 320V080 9999 FEW020 20/16 Q1013 NOSIG

METARs EXPIRÉS :
  • 140930Z 06004KT 030V100 9999 BKN038 20/16 Q1013 NOSIG
  • 140900Z 35003KT 310V020 9999 FEW020 OVC040 19/16 Q1013 NOSIG
  • 140851Z 33004KT 310V010 9999 VCSH FEW035TCU OVC040 19/16 Q1013 RMK REG QNH 1009
  • 140830Z 34006KT 310V010 9999 VCTS FEW030CB OVC040 19/16 Q1013 BECMG NSW
  • 140828Z 34006KT 310V010 9999 VCTS FEW030CB OVC040 20/16 Q1013 RMK REG QNH 1009
  • 140800Z 32006KT 300V360 9999 -SHRA FEW035TCU OVC040 21/15 Q1012 NOSIG
  • 140753Z 34006KT 310V010 9999 -SHRA FEW035TCU OVC040 21/14 Q1012 RMK REG QNH 1009
  • 140730Z 34008KT 310V020 9999 VCSH FEW035TCU OVC040 21/14 Q1012 TEMPO TSRA FEW030CB

TAF TAF LKMT
Valide du 14 à 06h jusqu'au 15 à 12h UTC


140500Z 1406/1512 24006KT CAVOK
BECMG 1409/1411 04006KT
TEMPO 1407/1412 6000 RA BKN030
PROB30
TEMPO 1408/1418 7000 SHRA SCT035CB
BECMG 1417/1420 VRB02KT
BECMG 1422/1500 2500 MIFG NSC
TEMPO 1500/1505 1300 BR SCT005
PROB30
TEMPO 1500/1505 0800 FG BKN005
BECMG 1505/1507 05004KT
Pas de NOTAMs connus pour ce terrain.



MET'MAP, la Météo Aéronautique d'un coup d'oeil ! - Copyright ORBIFLY Décembre 2007 - Disclaimer

ORBIFLY MET'MAP TEAM :

Programmation & Développement : Alexandra Zaïnal
Conception & Développement : Baudouin d'Aumeries
Co-Programmation & Développement : Marc-Olivier Méhu
Soutien technique & logistique : Manuel Goepfert

Contact : metmap@orbifly.com




SOURCES & CREDITS :

   NOAA